createdAt,value
2023-03-04T00:00:36.821Z,48.30
2023-03-04T00:03:03.620Z,48.06
2023-03-04T00:05:31.163Z,48.22
2023-03-04T00:07:57.824Z,48.13
2023-03-04T00:10:24.454Z,47.94
2023-03-04T00:12:51.065Z,47.94
2023-03-04T00:15:17.698Z,48.08
2023-03-04T00:17:46.171Z,48.09
2023-03-04T00:20:13.632Z,48.17
2023-03-04T00:22:40.322Z,48.30
2023-03-04T00:25:07.473Z,48.46
2023-03-04T00:27:34.219Z,48.29
2023-03-04T00:30:00.875Z,48.37
2023-03-04T00:32:27.639Z,48.03
2023-03-04T00:34:54.417Z,48.42
2023-03-04T00:37:21.351Z,48.35
2023-03-04T00:39:47.922Z,48.23
2023-03-04T00:42:14.656Z,47.93
2023-03-04T00:44:41.406Z,48.10
2023-03-04T00:47:08.274Z,47.84
2023-03-04T00:49:34.898Z,48.04
2023-03-04T00:52:01.528Z,47.98
2023-03-04T00:54:28.177Z,48.01
2023-03-04T00:56:54.982Z,48.04
2023-03-04T00:59:21.553Z,47.72
2023-03-04T01:01:48.181Z,47.88
2023-03-04T01:04:17.107Z,47.85
2023-03-04T01:06:43.801Z,47.84
2023-03-04T01:09:12.179Z,47.41
2023-03-04T01:11:38.820Z,48.22
2023-03-04T01:14:05.656Z,47.80
2023-03-04T01:16:32.359Z,47.70
2023-03-04T01:18:58.946Z,47.69
2023-03-04T01:21:25.658Z,47.82
2023-03-04T01:23:52.364Z,47.85
2023-03-04T01:26:19.091Z,48.08
2023-03-04T01:28:47.174Z,48.13
2023-03-04T01:31:13.844Z,48.14
2023-03-04T01:33:40.475Z,48.04
2023-03-04T01:36:07.248Z,47.71
2023-03-04T01:38:33.938Z,47.53
2023-03-04T01:41:01.421Z,47.87
2023-03-04T01:43:30.214Z,47.98
2023-03-04T01:45:57.934Z,47.96
2023-03-04T01:48:28.242Z,47.88
2023-03-04T01:50:55.125Z,48.25
2023-03-04T01:53:25.562Z,48.12
2023-03-04T01:56:13.403Z,48.16
2023-03-04T01:58:40.299Z,48.35
2023-03-04T02:01:06.958Z,48.57
2023-03-04T02:03:33.685Z,47.98
2023-03-04T02:06:01.133Z,48.27
2023-03-04T02:08:28.246Z,47.92
2023-03-04T02:10:56.470Z,48.25
2023-03-04T02:13:23.324Z,48.03
2023-03-04T02:15:51.661Z,48.17
2023-03-04T02:18:23.349Z,47.92
2023-03-04T02:21:02.303Z,48.54
2023-03-04T02:23:50.801Z,48.38
2023-03-04T02:26:20.655Z,48.63
2023-03-04T02:28:51.962Z,48.45
2023-03-04T02:31:24.583Z,47.60
2023-03-04T02:33:53.044Z,48.16
2023-03-04T02:36:20.067Z,48.32
2023-03-04T02:38:46.921Z,48.08
2023-03-04T02:41:15.497Z,48.03
2023-03-04T02:43:44.240Z,48.28
2023-03-04T02:46:12.748Z,47.86
2023-03-04T02:48:39.846Z,48.03
2023-03-04T02:51:06.573Z,48.04
2023-03-04T02:53:33.318Z,47.98
2023-03-04T02:56:00.870Z,47.99
2023-03-04T02:58:32.844Z,48.03
2023-03-04T03:00:59.547Z,48.13
2023-03-04T03:03:28.005Z,47.92
2023-03-04T03:05:55.312Z,47.98
2023-03-04T03:08:22.664Z,47.99
2023-03-04T03:10:49.373Z,47.70
2023-03-04T03:13:16.722Z,47.78
2023-03-04T03:15:44.878Z,47.84
2023-03-04T03:18:11.607Z,47.69
2023-03-04T03:20:38.370Z,47.99
2023-03-04T03:23:05.343Z,47.87
2023-03-04T03:25:31.927Z,48.12
2023-03-04T03:27:58.525Z,47.79
2023-03-04T03:30:25.246Z,47.83
2023-03-04T03:32:51.935Z,48.09
2023-03-04T03:35:18.867Z,48.06
2023-03-04T03:37:45.603Z,47.91
2023-03-04T03:40:13.335Z,48.29
2023-03-04T03:42:39.965Z,48.02
2023-03-04T03:45:07.385Z,48.33
2023-03-04T03:47:34.048Z,47.84
2023-03-04T03:50:00.693Z,48.03
2023-03-04T03:52:27.367Z,48.10
2023-03-04T03:54:54.044Z,48.11
2023-03-04T03:57:20.605Z,47.98
2023-03-04T03:59:47.253Z,47.93
2023-03-04T04:02:13.908Z,48.19
2023-03-04T04:04:40.724Z,48.12
2023-03-04T04:07:07.541Z,48.00
2023-03-04T04:09:34.202Z,48.21
2023-03-04T04:12:00.811Z,48.03
2023-03-04T04:14:27.458Z,48.48
2023-03-04T04:16:54.153Z,48.15
2023-03-04T04:19:21.184Z,48.38
2023-03-04T04:21:48.465Z,48.15
2023-03-04T04:24:15.150Z,47.91
2023-03-04T04:26:41.935Z,47.96
2023-03-04T04:29:09.317Z,48.07
2023-03-04T04:31:36.343Z,47.68
2023-03-04T04:34:03.213Z,47.81
2023-03-04T04:36:29.970Z,47.68
2023-03-04T04:38:57.577Z,47.81
2023-03-04T04:41:29.155Z,48.18
2023-03-04T04:43:56.050Z,48.23
2023-03-04T04:46:23.019Z,47.79
2023-03-04T04:48:50.110Z,47.91
2023-03-04T04:51:16.670Z,47.87
2023-03-04T04:53:44.787Z,47.90
2023-03-04T04:56:16.903Z,48.07
2023-03-04T04:58:44.517Z,47.81
2023-03-04T05:01:11.565Z,47.82
2023-03-04T05:03:39.316Z,48.00
2023-03-04T05:06:08.130Z,48.06
2023-03-04T05:08:35.606Z,47.86
2023-03-04T05:11:04.960Z,47.82
2023-03-04T05:13:31.837Z,47.82
2023-03-04T05:15:58.829Z,47.76
2023-03-04T05:18:27.406Z,47.61
2023-03-04T05:20:55.955Z,47.79
2023-03-04T05:23:22.923Z,47.97
2023-03-04T05:25:49.707Z,47.72
2023-03-04T05:28:16.604Z,47.65
2023-03-04T05:30:44.621Z,47.45
2023-03-04T05:33:12.630Z,47.55
2023-03-04T05:35:40.220Z,47.79
2023-03-04T05:38:08.924Z,47.48
2023-03-04T05:40:36.222Z,47.87
2023-03-04T05:43:02.833Z,47.74
2023-03-04T05:45:29.599Z,47.63
2023-03-04T05:47:56.662Z,47.57
2023-03-04T05:50:23.972Z,47.51
2023-03-04T05:52:53.043Z,47.52
2023-03-04T05:55:19.887Z,47.74
2023-03-04T05:57:46.835Z,47.65
2023-03-04T06:00:14.565Z,47.42
2023-03-04T06:02:41.877Z,47.71
2023-03-04T06:05:08.841Z,47.71
2023-03-04T06:07:35.880Z,47.44
2023-03-04T06:10:02.572Z,47.74
2023-03-04T06:12:29.789Z,47.21
2023-03-04T06:14:56.673Z,47.60
2023-03-04T06:17:23.537Z,47.70
2023-03-04T06:19:50.165Z,47.65
2023-03-04T06:22:16.836Z,47.68
2023-03-04T06:24:43.477Z,47.63
2023-03-04T06:27:10.252Z,47.63
2023-03-04T06:29:36.940Z,47.57
2023-03-04T06:32:03.790Z,47.46
2023-03-04T06:34:30.453Z,47.34
2023-03-04T06:36:57.131Z,47.61
2023-03-04T06:39:23.805Z,47.38
2023-03-04T06:41:50.511Z,47.50
2023-03-04T06:44:17.210Z,47.41
2023-03-04T06:46:43.875Z,47.32
2023-03-04T06:49:10.596Z,47.41
2023-03-04T06:51:37.381Z,47.83
2023-03-04T06:54:04.221Z,47.72
2023-03-04T06:56:31.105Z,47.65
2023-03-04T06:58:57.763Z,47.96
2023-03-04T07:01:26.722Z,48.22
2023-03-04T07:03:54.055Z,48.50
2023-03-04T07:06:22.934Z,48.75
2023-03-04T07:08:50.790Z,49.15
2023-03-04T07:11:18.510Z,49.15
2023-03-04T07:13:45.746Z,49.09
2023-03-04T07:16:16.291Z,49.30
2023-03-04T07:18:43.383Z,49.07
2023-03-04T07:21:10.226Z,48.97
2023-03-04T07:23:37.260Z,49.32
2023-03-04T07:26:04.369Z,49.51
2023-03-04T07:28:31.342Z,49.72
2023-03-04T07:30:57.953Z,50.23
2023-03-04T07:33:24.685Z,49.86
2023-03-04T07:35:59.207Z,50.52
2023-03-04T07:38:25.923Z,50.49
2023-03-04T07:40:57.518Z,51.29
2023-03-04T07:43:24.402Z,51.55
2023-03-04T07:45:51.161Z,52.78
2023-03-04T07:48:17.936Z,52.99
2023-03-04T07:50:44.575Z,53.05
2023-03-04T07:53:11.296Z,53.56
2023-03-04T07:55:37.905Z,53.11
2023-03-04T07:58:04.933Z,53.22
2023-03-04T08:00:31.571Z,53.26
2023-03-04T08:02:58.289Z,52.97
2023-03-04T08:05:24.972Z,53.51
2023-03-04T08:07:51.631Z,53.04
2023-03-04T08:10:18.369Z,53.65
2023-03-04T08:12:45.096Z,53.29
2023-03-04T08:15:12.014Z,53.32
2023-03-04T08:17:38.903Z,52.99
2023-03-04T08:20:06.092Z,53.17
2023-03-04T08:22:32.790Z,52.98
2023-03-04T08:24:59.344Z,53.05
2023-03-04T08:27:26.132Z,53.06
2023-03-04T08:29:52.746Z,52.69
2023-03-04T08:32:19.577Z,53.10
2023-03-04T08:34:46.373Z,53.34
2023-03-04T08:37:13.066Z,53.41
2023-03-04T08:39:39.702Z,53.02
2023-03-04T08:42:06.401Z,53.21
2023-03-04T08:44:33.011Z,52.79
2023-03-04T08:46:59.764Z,53.35
2023-03-04T08:49:26.472Z,52.68
2023-03-04T08:51:53.164Z,52.80
2023-03-04T08:54:19.856Z,53.00
2023-03-04T08:56:47.201Z,53.23
2023-03-04T08:59:13.817Z,54.00
2023-03-04T09:01:40.508Z,54.17
2023-03-04T09:04:07.353Z,54.54
2023-03-04T09:06:34.121Z,54.40
2023-03-04T09:09:00.927Z,54.43
2023-03-04T09:11:27.810Z,53.90
2023-03-04T09:13:54.251Z,53.40
2023-03-04T09:16:21.478Z,53.11
2023-03-04T09:18:48.100Z,52.69
2023-03-04T09:21:14.926Z,52.34
2023-03-04T09:23:41.688Z,52.52
2023-03-04T09:26:22.106Z,52.57
2023-03-04T09:28:52.918Z,52.51
2023-03-04T09:31:19.842Z,52.37
2023-03-04T09:33:46.674Z,51.38
2023-03-04T09:36:14.813Z,51.08
2023-03-04T09:38:42.070Z,50.90
2023-03-04T09:41:27.446Z,51.56
2023-03-04T09:43:54.590Z,51.86
2023-03-04T09:46:35.624Z,52.67
2023-03-04T09:49:02.445Z,52.53
2023-03-04T09:51:45.948Z,52.69
2023-03-04T09:54:29.059Z,53.29
2023-03-04T09:57:28.653Z,53.30
2023-03-04T09:59:59.396Z,53.78
2023-03-04T10:02:35.537Z,53.81
2023-03-04T10:05:05.305Z,53.71
2023-03-04T10:07:36.561Z,54.46
2023-03-04T10:10:07.774Z,54.66
2023-03-04T10:12:36.468Z,54.85
2023-03-04T10:15:21.992Z,54.30
2023-03-04T10:17:51.464Z,54.40
2023-03-04T10:20:24.330Z,54.62
2023-03-04T10:23:05.680Z,54.99
2023-03-04T10:25:33.729Z,54.75
2023-03-04T10:28:17.465Z,55.07
2023-03-04T10:31:04.550Z,54.88
2023-03-04T10:33:35.133Z,54.55
2023-03-04T10:36:03.731Z,54.62
2023-03-04T10:38:35.557Z,54.82
2023-03-04T10:41:12.887Z,55.44
2023-03-04T10:43:39.617Z,55.34
2023-03-04T10:46:06.293Z,54.64
2023-03-04T10:48:32.987Z,54.78
2023-03-04T10:51:21.274Z,54.35
2023-03-04T10:53:51.639Z,54.20
2023-03-04T10:56:39.541Z,53.93
2023-03-04T10:59:26.724Z,53.02
2023-03-04T11:01:54.578Z,52.45
2023-03-04T11:04:25.576Z,53.23
2023-03-04T11:06:52.789Z,53.51
2023-03-04T11:09:32.587Z,52.45
2023-03-04T11:12:01.368Z,52.98
2023-03-04T11:14:31.691Z,52.94
2023-03-04T11:17:04.013Z,53.25
2023-03-04T11:19:39.368Z,52.81
2023-03-04T11:22:06.525Z,52.86
2023-03-04T11:24:34.902Z,51.91
2023-03-04T11:27:16.320Z,52.68
2023-03-04T11:29:52.627Z,51.91
2023-03-04T11:32:26.198Z,52.39
2023-03-04T11:35:06.749Z,51.88
2023-03-04T11:38:15.353Z,51.54
2023-03-04T11:40:59.741Z,51.73
2023-03-04T11:43:37.926Z,51.40
2023-03-04T11:46:41.219Z,51.08
2023-03-04T11:49:34.938Z,51.07
2023-03-04T11:52:13.765Z,50.55
2023-03-04T11:55:11.756Z,50.94
2023-03-04T11:57:52.003Z,51.05
2023-03-04T12:00:30.646Z,50.57
2023-03-04T12:03:09.904Z,51.10
2023-03-04T12:05:48.046Z,50.27
2023-03-04T12:08:32.065Z,50.49
2023-03-04T12:11:21.569Z,50.04
2023-03-04T12:13:53.956Z,50.37
2023-03-04T12:16:38.866Z,50.19
2023-03-04T12:19:12.984Z,49.98
2023-03-04T12:21:52.068Z,49.17
2023-03-04T12:24:27.745Z,49.14
2023-03-04T12:27:16.108Z,49.17
2023-03-04T12:30:05.563Z,48.80
2023-03-04T12:33:01.778Z,48.06
2023-03-04T12:35:38.710Z,48.31
2023-03-04T12:38:29.422Z,48.21
2023-03-04T12:41:17.578Z,48.21
2023-03-04T12:43:54.373Z,48.53
2023-03-04T12:46:38.715Z,48.16
2023-03-04T12:49:30.062Z,47.63
2023-03-04T12:52:21.418Z,48.04
2023-03-04T12:54:52.790Z,46.87
2023-03-04T12:57:23.132Z,47.93
2023-03-04T13:00:17.763Z,46.90
2023-03-04T13:02:54.102Z,47.04
2023-03-04T13:05:30.084Z,46.27
2023-03-04T13:08:04.941Z,46.19
2023-03-04T13:10:31.686Z,47.12
2023-03-04T13:13:00.021Z,47.10
2023-03-04T13:15:31.061Z,46.97
2023-03-04T13:18:22.484Z,46.81
2023-03-04T13:21:25.342Z,46.46
2023-03-04T13:23:53.454Z,46.98
2023-03-04T13:26:28.549Z,46.05
2023-03-04T13:29:10.542Z,46.62
2023-03-04T13:32:22.476Z,46.52
2023-03-04T13:34:54.066Z,46.31
2023-03-04T13:37:29.259Z,45.99
2023-03-04T13:40:20.825Z,45.46
2023-03-04T13:42:47.991Z,46.15
2023-03-04T13:45:34.337Z,46.00
2023-03-04T13:48:02.237Z,46.10
2023-03-04T13:50:38.349Z,46.16
2023-03-04T13:53:31.078Z,46.31
2023-03-04T13:56:09.417Z,46.21
2023-03-04T13:58:36.311Z,45.83
2023-03-04T14:01:03.675Z,46.20
2023-03-04T14:03:31.891Z,46.88
2023-03-04T14:06:11.587Z,46.90
2023-03-04T14:08:38.705Z,45.95
2023-03-04T14:11:05.376Z,45.77
2023-03-04T14:13:32.020Z,45.72
2023-03-04T14:15:59.925Z,46.28
2023-03-04T14:18:28.131Z,46.00
2023-03-04T14:20:58.986Z,46.30
2023-03-04T14:23:34.185Z,46.35
2023-03-04T14:26:18.717Z,46.32
2023-03-04T14:28:51.674Z,47.18
2023-03-04T14:31:21.174Z,46.54
2023-03-04T14:33:50.318Z,45.22
2023-03-04T14:36:22.174Z,45.48
2023-03-04T14:38:53.330Z,45.42
2023-03-04T14:41:25.652Z,45.44
2023-03-04T14:44:08.615Z,45.32
2023-03-04T14:47:06.019Z,45.58
2023-03-04T14:49:35.957Z,45.87
2023-03-04T14:52:03.053Z,45.86
2023-03-04T14:54:41.115Z,46.32
2023-03-04T14:57:26.006Z,46.56
2023-03-04T14:59:53.750Z,46.06
2023-03-04T15:02:23.295Z,45.26
2023-03-04T15:04:51.298Z,45.82
2023-03-04T15:07:31.871Z,45.45
2023-03-04T15:09:59.104Z,45.31
2023-03-04T15:12:30.690Z,45.46
2023-03-04T15:15:03.086Z,45.82
2023-03-04T15:17:38.342Z,45.46
2023-03-04T15:20:07.764Z,45.55
2023-03-04T15:23:00.822Z,45.92
2023-03-04T15:25:27.784Z,45.95
2023-03-04T15:27:54.619Z,46.33
2023-03-04T15:30:27.536Z,47.17
2023-03-04T15:32:57.883Z,47.35
2023-03-04T15:35:27.359Z,47.42
2023-03-04T15:37:55.531Z,47.05
2023-03-04T15:40:27.518Z,47.42
2023-03-04T15:42:55.344Z,47.66
2023-03-04T15:45:24.925Z,47.37
2023-03-04T15:47:51.815Z,47.43
2023-03-04T15:50:19.417Z,47.58
2023-03-04T15:52:46.624Z,47.43
2023-03-04T15:55:21.082Z,47.64
2023-03-04T15:57:50.304Z,47.86
2023-03-04T16:00:17.071Z,47.71
2023-03-04T16:02:43.888Z,47.78
2023-03-04T16:05:10.831Z,48.13
2023-03-04T16:07:38.590Z,48.12
2023-03-04T16:10:27.711Z,48.37
2023-03-04T16:12:54.944Z,48.57
2023-03-04T16:15:30.860Z,48.91
2023-03-04T16:17:57.945Z,48.88
2023-03-04T16:20:28.714Z,49.18
2023-03-04T16:22:56.789Z,49.29
2023-03-04T16:25:24.788Z,49.40
2023-03-04T16:27:52.940Z,49.58
2023-03-04T16:30:25.372Z,49.63
2023-03-04T16:32:52.631Z,49.74
2023-03-04T16:35:19.843Z,49.81
2023-03-04T16:37:47.009Z,49.93
2023-03-04T16:40:14.578Z,50.06
2023-03-04T16:42:41.280Z,50.09
2023-03-04T16:45:21.427Z,49.93
2023-03-04T16:47:48.120Z,50.40
2023-03-04T16:50:20.010Z,50.26
2023-03-04T16:52:48.590Z,50.51
2023-03-04T16:55:21.001Z,50.99
2023-03-04T16:57:47.783Z,51.16
2023-03-04T17:00:17.351Z,51.40
2023-03-04T17:02:44.721Z,51.55
2023-03-04T17:05:22.250Z,52.11
2023-03-04T17:07:49.064Z,52.20
2023-03-04T17:10:16.667Z,52.43
2023-03-04T17:12:43.931Z,52.16
2023-03-04T17:15:12.168Z,52.55
2023-03-04T17:17:39.354Z,52.70
2023-03-04T17:20:07.131Z,52.97
2023-03-04T17:22:34.104Z,53.00
2023-03-04T17:25:02.768Z,52.98
2023-03-04T17:27:30.079Z,52.49
2023-03-04T17:29:56.690Z,52.49
2023-03-04T17:32:23.692Z,52.75
2023-03-04T17:34:50.462Z,53.60
2023-03-04T17:37:17.351Z,54.08
2023-03-04T17:39:44.000Z,54.27
2023-03-04T17:42:10.697Z,54.00
2023-03-04T17:44:37.388Z,54.23
2023-03-04T17:47:04.333Z,54.27
2023-03-04T17:49:30.999Z,54.20
2023-03-04T17:51:57.715Z,54.40
2023-03-04T17:54:24.334Z,54.13
2023-03-04T17:56:51.059Z,54.82
2023-03-04T17:59:17.991Z,54.94
2023-03-04T18:01:45.552Z,55.01
2023-03-04T18:04:13.416Z,54.70
2023-03-04T18:06:40.404Z,54.57
2023-03-04T18:09:07.101Z,54.36
2023-03-04T18:11:36.680Z,53.78
2023-03-04T18:14:03.374Z,53.22
2023-03-04T18:16:30.142Z,52.88
2023-03-04T18:18:58.550Z,52.51
2023-03-04T18:21:26.366Z,52.53
2023-03-04T18:23:53.354Z,52.22
2023-03-04T18:26:23.366Z,52.08
2023-03-04T18:28:54.529Z,51.64
2023-03-04T18:31:22.373Z,51.52
2023-03-04T18:33:49.254Z,51.28
2023-03-04T18:36:16.140Z,51.14
2023-03-04T18:38:42.969Z,50.71
2023-03-04T18:41:12.825Z,50.46
2023-03-04T18:43:39.625Z,50.35
2023-03-04T18:46:27.156Z,50.51
2023-03-04T18:48:56.024Z,50.05
2023-03-04T18:51:22.665Z,49.99
2023-03-04T18:53:49.412Z,50.07
2023-03-04T18:56:20.350Z,49.75
2023-03-04T18:58:47.886Z,50.06
2023-03-04T19:01:16.990Z,49.65
2023-03-04T19:03:44.552Z,49.55
2023-03-04T19:06:11.288Z,49.46
2023-03-04T19:08:38.305Z,49.46
2023-03-04T19:11:06.277Z,49.60
2023-03-04T19:13:33.498Z,49.41
2023-03-04T19:16:00.155Z,49.54
2023-03-04T19:18:28.875Z,49.73
2023-03-04T19:20:55.576Z,49.56
2023-03-04T19:23:22.265Z,49.40
2023-03-04T19:25:48.949Z,49.41
2023-03-04T19:28:15.636Z,49.53
2023-03-04T19:30:42.413Z,49.56
2023-03-04T19:33:10.366Z,49.82
2023-03-04T19:35:44.683Z,49.86
2023-03-04T19:38:11.986Z,49.64
2023-03-04T19:40:40.408Z,49.92
2023-03-04T19:43:08.016Z,49.55
2023-03-04T19:45:35.092Z,49.59
2023-03-04T19:48:03.157Z,49.76
2023-03-04T19:50:30.381Z,49.72
2023-03-04T19:52:57.240Z,49.82
2023-03-04T19:55:24.266Z,49.86
2023-03-04T19:57:50.966Z,49.67
2023-03-04T20:00:18.964Z,49.55
2023-03-04T20:02:47.858Z,49.72
2023-03-04T20:05:14.570Z,49.92
2023-03-04T20:07:41.471Z,49.77
2023-03-04T20:10:08.927Z,49.90
2023-03-04T20:12:36.300Z,49.71
2023-03-04T20:15:06.113Z,49.78
2023-03-04T20:17:32.725Z,50.01
2023-03-04T20:19:59.382Z,50.00
2023-03-04T20:22:26.167Z,49.97
2023-03-04T20:24:54.878Z,49.92
2023-03-04T20:27:21.740Z,49.88
2023-03-04T20:29:49.174Z,50.08
2023-03-04T20:32:15.937Z,49.79
2023-03-04T20:34:42.656Z,50.06
2023-03-04T20:37:09.304Z,49.84
2023-03-04T20:39:35.939Z,49.87
2023-03-04T20:42:03.817Z,49.71
2023-03-04T20:44:30.507Z,49.95
2023-03-04T20:46:57.447Z,49.79
2023-03-04T20:49:26.714Z,49.75
2023-03-04T20:51:56.113Z,49.98
2023-03-04T20:54:22.932Z,49.96
2023-03-04T20:56:49.639Z,50.15
2023-03-04T20:59:16.565Z,49.69
2023-03-04T21:01:45.270Z,49.68
2023-03-04T21:04:12.177Z,49.76
2023-03-04T21:06:39.628Z,49.75
2023-03-04T21:09:09.319Z,49.88
2023-03-04T21:11:40.424Z,49.90
2023-03-04T21:14:22.154Z,49.77
2023-03-04T21:16:51.131Z,49.92
2023-03-04T21:19:23.353Z,49.65
2023-03-04T21:21:50.935Z,50.05
2023-03-04T21:24:20.667Z,49.51
2023-03-04T21:26:48.059Z,49.71
2023-03-04T21:29:15.938Z,49.67
2023-03-04T21:31:45.456Z,49.83
2023-03-04T21:34:35.498Z,49.61
2023-03-04T21:37:03.030Z,49.50
2023-03-04T21:39:30.294Z,49.90
2023-03-04T21:41:58.542Z,49.79
2023-03-04T21:44:33.323Z,50.04
2023-03-04T21:47:00.838Z,49.94
2023-03-04T21:49:28.180Z,49.62
2023-03-04T21:51:54.862Z,49.72
2023-03-04T21:54:21.642Z,49.58
2023-03-04T21:56:49.483Z,49.82
2023-03-04T21:59:17.579Z,49.61
2023-03-04T22:01:44.563Z,49.47
2023-03-04T22:04:11.233Z,49.85
2023-03-04T22:06:39.946Z,49.50
2023-03-04T22:09:06.977Z,49.79
2023-03-04T22:11:33.734Z,49.43
2023-03-04T22:14:02.002Z,49.45
2023-03-04T22:16:28.928Z,49.20
2023-03-04T22:18:55.727Z,49.50
2023-03-04T22:21:22.867Z,49.65
2023-03-04T22:23:49.483Z,49.26
2023-03-04T22:26:29.944Z,49.61
2023-03-04T22:28:56.590Z,49.48
2023-03-04T22:31:30.180Z,49.35
2023-03-04T22:34:01.603Z,49.30
2023-03-04T22:36:32.981Z,49.42
2023-03-04T22:39:01.191Z,49.34
2023-03-04T22:41:29.011Z,49.42
2023-03-04T22:43:55.868Z,49.48
2023-03-04T22:46:25.690Z,49.18
2023-03-04T22:48:53.983Z,49.40
2023-03-04T22:51:21.073Z,49.51
2023-03-04T22:53:48.722Z,49.29
2023-03-04T22:56:15.644Z,49.09
2023-03-04T22:58:44.386Z,49.37
2023-03-04T23:01:12.253Z,49.21
2023-03-04T23:03:40.300Z,49.28
2023-03-04T23:06:16.902Z,49.00
2023-03-04T23:08:45.550Z,49.26
2023-03-04T23:11:19.361Z,49.12
2023-03-04T23:13:46.132Z,49.27
2023-03-04T23:16:13.740Z,49.05
2023-03-04T23:18:41.831Z,49.29
2023-03-04T23:21:14.620Z,49.15
2023-03-04T23:23:41.626Z,49.32
2023-03-04T23:26:20.240Z,49.48
2023-03-04T23:28:47.046Z,49.16
2023-03-04T23:31:17.233Z,49.24
2023-03-04T23:33:45.758Z,49.25
2023-03-04T23:36:15.486Z,49.17
2023-03-04T23:38:44.103Z,49.55
2023-03-04T23:41:12.962Z,49.57
2023-03-04T23:43:39.702Z,49.38
2023-03-04T23:46:09.170Z,49.35
2023-03-04T23:48:35.863Z,49.20
2023-03-04T23:51:02.495Z,49.62
2023-03-04T23:53:29.519Z,49.17
2023-03-04T23:55:56.238Z,49.17
2023-03-04T23:58:23.003Z,49.51
